sensor_id;sensor_type;location;lat;lon;timestamp;pressure;altitude;pressure_sealevel;temperature;humidity
49583;BME280;36329;48.816;44.624;2023-01-08T00:00:17;102378;;;-15.3;57.5
49583;BME280;36329;48.816;44.624;2023-01-08T00:03:19;102376;;;-15.6;58.9
49583;BME280;36329;48.816;44.624;2023-01-08T00:06:20;102383;;;-15.8;59.3
49583;BME280;36329;48.816;44.624;2023-01-08T00:09:22;102382;;;-15.9;58.8
49583;BME280;36329;48.816;44.624;2023-01-08T00:12:23;102388;;;-15.8;58.6
49583;BME280;36329;48.816;44.624;2023-01-08T00:15:25;102390;;;-15.4;59
49583;BME280;36329;48.816;44.624;2023-01-08T00:18:27;102391;;;-15.4;57.8
49583;BME280;36329;48.816;44.624;2023-01-08T00:21:28;102381;;;-15.5;58
49583;BME280;36329;48.816;44.624;2023-01-08T00:24:30;102393;;;-15.6;58.6
49583;BME280;36329;48.816;44.624;2023-01-08T00:27:31;102392;;;-15.7;58.6
49583;BME280;36329;48.816;44.624;2023-01-08T00:30:33;102399;;;-15.5;58
49583;BME280;36329;48.816;44.624;2023-01-08T00:33:35;102388;;;-15.9;58.3
49583;BME280;36329;48.816;44.624;2023-01-08T00:36:37;102389;;;-15.9;58.7
49583;BME280;36329;48.816;44.624;2023-01-08T00:39:39;102380;;;-15.8;58.6
49583;BME280;36329;48.816;44.624;2023-01-08T00:42:40;102380;;;-15.9;58.2
49583;BME280;36329;48.816;44.624;2023-01-08T00:45:42;102381;;;-15.8;58.5
49583;BME280;36329;48.816;44.624;2023-01-08T00:48:44;102382;;;-15.6;57.8
49583;BME280;36329;48.816;44.624;2023-01-08T00:51:46;102384;;;-15.9;58.1
49583;BME280;36329;48.816;44.624;2023-01-08T00:54:47;102395;;;-15.9;58.3
49583;BME280;36329;48.816;44.624;2023-01-08T00:57:49;102393;;;-15.8;57.9
49583;BME280;36329;48.816;44.624;2023-01-08T01:00:50;102403;;;-16;57.7
49583;BME280;36329;48.816;44.624;2023-01-08T01:03:52;102414;;;-15.9;58.2
49583;BME280;36329;48.816;44.624;2023-01-08T01:06:53;102418.01;;;-16;58.5
49583;BME280;36329;48.816;44.624;2023-01-08T01:09:55;102417.01;;;-16;58.3
49583;BME280;36329;48.816;44.624;2023-01-08T01:12:56;102409;;;-15.9;58.2
49583;BME280;36329;48.816;44.624;2023-01-08T01:15:58;102418.99;;;-16.1;58.3
49583;BME280;36329;48.816;44.624;2023-01-08T01:19:01;102410;;;-16.1;57.9
49583;BME280;36329;48.816;44.624;2023-01-08T01:22:03;102416;;;-16;59.4
49583;BME280;36329;48.816;44.624;2023-01-08T01:25:05;102406.99;;;-16.1;58.2
49583;BME280;36329;48.816;44.624;2023-01-08T01:28:07;102403;;;-16.3;58.4
49583;BME280;36329;48.816;44.624;2023-01-08T01:31:09;102406.01;;;-16.1;58.6
49583;BME280;36329;48.816;44.624;2023-01-08T01:34:12;102398;;;-16.5;59.1
49583;BME280;36329;48.816;44.624;2023-01-08T01:37:14;102398;;;-16.4;59.4
49583;BME280;36329;48.816;44.624;2023-01-08T01:40:16;102410;;;-16.3;58.7
49583;BME280;36329;48.816;44.624;2023-01-08T01:43:36;102409;;;-16.1;58.8
49583;BME280;36329;48.816;44.624;2023-01-08T01:46:39;102410;;;-16.3;58.2
49583;BME280;36329;48.816;44.624;2023-01-08T01:49:42;102404;;;-16.2;59.5
49583;BME280;36329;48.816;44.624;2023-01-08T01:52:54;102400;;;-16.6;59
49583;BME280;36329;48.816;44.624;2023-01-08T01:55:59;102397;;;-16.8;60.4
49583;BME280;36329;48.816;44.624;2023-01-08T01:59:01;102396;;;-16.6;59.8
49583;BME280;36329;48.816;44.624;2023-01-08T02:02:03;102394;;;-16.5;59.9
49583;BME280;36329;48.816;44.624;2023-01-08T02:05:05;102396;;;-16.3;59.3
49583;BME280;36329;48.816;44.624;2023-01-08T02:08:11;102392;;;-16.7;59.6
49583;BME280;36329;48.816;44.624;2023-01-08T02:11:18;102390;;;-17.1;60.7
49583;BME280;36329;48.816;44.624;2023-01-08T02:14:28;102378;;;-16.6;60.2
49583;BME280;36329;48.816;44.624;2023-01-08T02:17:38;102397;;;-16.9;59.6
49583;BME280;36329;48.816;44.624;2023-01-08T02:20:43;102396;;;-16.9;59.4
49583;BME280;36329;48.816;44.624;2023-01-08T02:23:54;102399;;;-17;60.1
49583;BME280;36329;48.816;44.624;2023-01-08T02:27:01;102413;;;-16.7;59.6
49583;BME280;36329;48.816;44.624;2023-01-08T02:30:05;102428;;;-16.4;59.2
49583;BME280;36329;48.816;44.624;2023-01-08T02:33:07;102428;;;-16.8;59.1
49583;BME280;36329;48.816;44.624;2023-01-08T02:36:16;102440;;;-16.8;59.9
49583;BME280;36329;48.816;44.624;2023-01-08T02:39:34;102441;;;-17.2;59.9
49583;BME280;36329;48.816;44.624;2023-01-08T02:42:43;102443.01;;;-16.6;59.7
49583;BME280;36329;48.816;44.624;2023-01-08T02:45:48;102443.01;;;-17;59.5
49583;BME280;36329;48.816;44.624;2023-01-08T02:48:54;102457.99;;;-17;59.9
49583;BME280;36329;48.816;44.624;2023-01-08T02:51:59;102456.01;;;-16.8;59
49583;BME280;36329;48.816;44.624;2023-01-08T02:55:03;102456.01;;;-16.7;60.1
49583;BME280;36329;48.816;44.624;2023-01-08T02:58:05;102457.99;;;-16.6;59.3
49583;BME280;36329;48.816;44.624;2023-01-08T03:01:09;102459;;;-16.5;59.4
49583;BME280;36329;48.816;44.624;2023-01-08T03:04:14;102461;;;-16.8;59.4
49583;BME280;36329;48.816;44.624;2023-01-08T03:07:18;102452;;;-17;59.6
49583;BME280;36329;48.816;44.624;2023-01-08T03:10:21;102451;;;-17.1;59.8
49583;BME280;36329;48.816;44.624;2023-01-08T03:13:30;102466;;;-17;59.9
49583;BME280;36329;48.816;44.624;2023-01-08T03:16:37;102468.99;;;-16.9;59.7
49583;BME280;36329;48.816;44.624;2023-01-08T03:19:41;102464;;;-16.9;59.9
49583;BME280;36329;48.816;44.624;2023-01-08T03:22:46;102452;;;-17.3;60.1
49583;BME280;36329;48.816;44.624;2023-01-08T03:25:49;102454;;;-17.3;60.6
49583;BME280;36329;48.816;44.624;2023-01-08T03:28:52;102461;;;-17.2;61.2
49583;BME280;36329;48.816;44.624;2023-01-08T03:31:56;102471;;;-17.3;60.8
49583;BME280;36329;48.816;44.624;2023-01-08T03:35:00;102471;;;-17;62
49583;BME280;36329;48.816;44.624;2023-01-08T03:38:09;102480.01;;;-16.8;60.7
49583;BME280;36329;48.816;44.624;2023-01-08T03:41:18;102473;;;-16.9;60
49583;BME280;36329;48.816;44.624;2023-01-08T03:44:21;102473;;;-17.2;60.5
49583;BME280;36329;48.816;44.624;2023-01-08T03:47:24;102481.01;;;-16.9;60.9
49583;BME280;36329;48.816;44.624;2023-01-08T03:50:28;102486;;;-16.7;60.2
49583;BME280;36329;48.816;44.624;2023-01-08T03:53:31;102484;;;-17;59.6
49583;BME280;36329;48.816;44.624;2023-01-08T03:56:33;102489;;;-17.1;60.5
49583;BME280;36329;48.816;44.624;2023-01-08T03:59:35;102497;;;-17.1;60
49583;BME280;36329;48.816;44.624;2023-01-08T04:02:36;102511;;;-17;59.5
49583;BME280;36329;48.816;44.624;2023-01-08T04:05:38;102519.99;;;-16.8;59.2
49583;BME280;36329;48.816;44.624;2023-01-08T04:08:39;102506.99;;;-17.2;59.8
49583;BME280;36329;48.816;44.624;2023-01-08T04:11:41;102503;;;-17.2;60.9
49583;BME280;36329;48.816;44.624;2023-01-08T04:14:42;102506.01;;;-17;60.5
49583;BME280;36329;48.816;44.624;2023-01-08T04:17:45;102516;;;-17;60.4
49583;BME280;36329;48.816;44.624;2023-01-08T04:20:47;102521;;;-17.2;60.6
49583;BME280;36329;48.816;44.624;2023-01-08T04:23:48;102513;;;-17.4;60.7
49583;BME280;36329;48.816;44.624;2023-01-08T04:26:50;102513;;;-17.7;61.4
49583;BME280;36329;48.816;44.624;2023-01-08T04:29:51;102523;;;-17.2;61.9
49583;BME280;36329;48.816;44.624;2023-01-08T04:32:53;102532.99;;;-17.2;61.8
49583;BME280;36329;48.816;44.624;2023-01-08T04:35:54;102525;;;-16.9;59.9
49583;BME280;36329;48.816;44.624;2023-01-08T04:38:56;102522;;;-17.1;59.6
49583;BME280;36329;48.816;44.624;2023-01-08T04:41:58;102536;;;-17.2;59.9
49583;BME280;36329;48.816;44.624;2023-01-08T04:45:00;102541;;;-17.1;60.1
49583;BME280;36329;48.816;44.624;2023-01-08T04:48:01;102541;;;-17.1;59.9
49583;BME280;36329;48.816;44.624;2023-01-08T04:51:04;102543.01;;;-17.4;60.5
49583;BME280;36329;48.816;44.624;2023-01-08T04:54:06;102542.01;;;-17.2;61.4
49583;BME280;36329;48.816;44.624;2023-01-08T04:57:07;102543.99;;;-17;60.3
49583;BME280;36329;48.816;44.624;2023-01-08T05:00:10;102543.99;;;-17.1;60.2
49583;BME280;36329;48.816;44.624;2023-01-08T05:03:11;102531.99;;;-17.1;60
49583;BME280;36329;48.816;44.624;2023-01-08T05:06:13;102529;;;-17.3;60.9
49583;BME280;36329;48.816;44.624;2023-01-08T05:09:15;102531.99;;;-17.1;60.2
49583;BME280;36329;48.816;44.624;2023-01-08T05:12:16;102539;;;-17.4;60.6
49583;BME280;36329;48.816;44.624;2023-01-08T05:15:18;102550;;;-17.5;61
49583;BME280;36329;48.816;44.624;2023-01-08T05:18:19;102566;;;-17.4;61.7
49583;BME280;36329;48.816;44.624;2023-01-08T05:21:21;102564;;;-17.3;61.4
49583;BME280;36329;48.816;44.624;2023-01-08T05:24:22;102565;;;-16.9;60.9
49583;BME280;36329;48.816;44.624;2023-01-08T05:27:24;102588;;;-16.9;59.7
49583;BME280;36329;48.816;44.624;2023-01-08T05:30:25;102605.01;;;-16.6;59.3
49583;BME280;36329;48.816;44.624;2023-01-08T05:33:27;102623;;;-16.7;59.5
49583;BME280;36329;48.816;44.624;2023-01-08T05:36:29;102619.99;;;-16.4;58.7
49583;BME280;36329;48.816;44.624;2023-01-08T05:39:30;102611;;;-16.3;57.4
49583;BME280;36329;48.816;44.624;2023-01-08T05:42:33;102602;;;-16.4;57.1
49583;BME280;36329;48.816;44.624;2023-01-08T05:45:35;102606.99;;;-16.2;56.7
49583;BME280;36329;48.816;44.624;2023-01-08T05:48:36;102596;;;-16.1;56
49583;BME280;36329;48.816;44.624;2023-01-08T05:51:38;102591;;;-16;55.9
49583;BME280;36329;48.816;44.624;2023-01-08T05:54:39;102572;;;-15.9;55.7
49583;BME280;36329;48.816;44.624;2023-01-08T05:57:41;102593.99;;;-15.5;55.2
49583;BME280;36329;48.816;44.624;2023-01-08T06:00:42;102607.99;;;-15.6;54.7
49583;BME280;36329;48.816;44.624;2023-01-08T06:03:44;102603;;;-15.3;54.3
49583;BME280;36329;48.816;44.624;2023-01-08T06:06:45;102604;;;-14.8;54
49583;BME280;36329;48.816;44.624;2023-01-08T06:09:47;102609;;;-14.2;51.7
49583;BME280;36329;48.816;44.624;2023-01-08T06:12:49;102614;;;-13.5;50.6
49583;BME280;36329;48.816;44.624;2023-01-08T06:15:50;102606.99;;;-12.9;48.7
49583;BME280;36329;48.816;44.624;2023-01-08T06:18:52;102599;;;-12.5;47.8
49583;BME280;36329;48.816;44.624;2023-01-08T06:21:53;102585;;;-12.5;46.3
49583;BME280;36329;48.816;44.624;2023-01-08T06:24:55;102591;;;-12.3;47.5
49583;BME280;36329;48.816;44.624;2023-01-08T06:27:56;102586;;;-12.1;46
49583;BME280;36329;48.816;44.624;2023-01-08T06:30:58;102594.99;;;-11.6;45
49583;BME280;36329;48.816;44.624;2023-01-08T06:33:59;102585;;;-11.9;45
49583;BME280;36329;48.816;44.624;2023-01-08T06:37:01;102598;;;-11.7;44.4
49583;BME280;36329;48.816;44.624;2023-01-08T06:40:03;102606.01;;;-10.8;43.4
49583;BME280;36329;48.816;44.624;2023-01-08T06:43:05;102609;;;-10.2;42.2
49583;BME280;36329;48.816;44.624;2023-01-08T06:46:08;102612;;;-10.9;41.5
49583;BME280;36329;48.816;44.624;2023-01-08T06:49:10;102611;;;-11.4;42.7
49583;BME280;36329;48.816;44.624;2023-01-08T06:52:12;102618.99;;;-10.7;42.6
49583;BME280;36329;48.816;44.624;2023-01-08T06:55:13;102628;;;-10.5;42
49583;BME280;36329;48.816;44.624;2023-01-08T06:58:15;102637;;;-10.1;41.7
49583;BME280;36329;48.816;44.624;2023-01-08T07:01:17;102644.99;;;-10.3;40.5
49583;BME280;36329;48.816;44.624;2023-01-08T07:04:19;102646;;;-10.2;40.4
49583;BME280;36329;48.816;44.624;2023-01-08T07:07:20;102644.99;;;-10.5;41.2
49583;BME280;36329;48.816;44.624;2023-01-08T07:10:22;102651;;;-9.5;40.1
49583;BME280;36329;48.816;44.624;2023-01-08T07:13:24;102655.01;;;-9.8;39.4
49583;BME280;36329;48.816;44.624;2023-01-08T07:16:25;102657.99;;;-9.1;39.8
49583;BME280;36329;48.816;44.624;2023-01-08T07:19:27;102666;;;-9.3;38.9
49583;BME280;36329;48.816;44.624;2023-01-08T07:22:29;102669.99;;;-8.7;39.1
49583;BME280;36329;48.816;44.624;2023-01-08T07:25:31;102674;;;-7.8;36.8
49583;BME280;36329;48.816;44.624;2023-01-08T07:28:33;102668.01;;;-7.8;36
49583;BME280;36329;48.816;44.624;2023-01-08T07:31:35;102673;;;-7.4;36.2
49583;BME280;36329;48.816;44.624;2023-01-08T07:34:36;102671;;;-7.3;35.4
49583;BME280;36329;48.816;44.624;2023-01-08T07:37:38;102668.99;;;-7.1;35.2
49583;BME280;36329;48.816;44.624;2023-01-08T07:40:40;102661;;;-7.5;35.4
49583;BME280;36329;48.816;44.624;2023-01-08T07:43:42;102664;;;-6.8;34.7
49583;BME280;36329;48.816;44.624;2023-01-08T07:46:43;102661;;;-6.7;34.2
49583;BME280;36329;48.816;44.624;2023-01-08T07:49:46;102675;;;-5.7;32.7
49583;BME280;36329;48.816;44.624;2023-01-08T07:52:47;102669.99;;;-6.5;33.5
49583;BME280;36329;48.816;44.624;2023-01-08T07:55:49;102663;;;-5.9;33.3
49583;BME280;36329;48.816;44.624;2023-01-08T07:58:51;102662;;;-6;32.7
49583;BME280;36329;48.816;44.624;2023-01-08T08:01:52;102671;;;-4.8;31.5
49583;BME280;36329;48.816;44.624;2023-01-08T08:04:54;102674;;;-3.5;30.3
49583;BME280;36329;48.816;44.624;2023-01-08T08:07:55;102663;;;-4.4;30.5
49583;BME280;36329;48.816;44.624;2023-01-08T08:10:57;102666;;;-3.5;30.2
49583;BME280;36329;48.816;44.624;2023-01-08T08:13:59;102667.01;;;-3.4;28.4
49583;BME280;36329;48.816;44.624;2023-01-08T08:17:00;102663;;;-4.1;30.6
49583;BME280;36329;48.816;44.624;2023-01-08T08:20:02;102661;;;-3.7;29.1
49583;BME280;36329;48.816;44.624;2023-01-08T08:23:07;102655.01;;;-3.6;28.7
49583;BME280;36329;48.816;44.624;2023-01-08T08:26:09;102647;;;-3.7;29.6
49583;BME280;36329;48.816;44.624;2023-01-08T08:29:10;102643.99;;;-3;29.3
49583;BME280;36329;48.816;44.624;2023-01-08T08:32:12;102660;;;-4.3;29.6
49583;BME280;36329;48.816;44.624;2023-01-08T08:35:14;102660;;;-3.2;29.3
49583;BME280;36329;48.816;44.624;2023-01-08T08:38:15;102643.99;;;-2.4;28.7
49583;BME280;36329;48.816;44.624;2023-01-08T08:41:17;102653;;;-2.8;28.5
49583;BME280;36329;48.816;44.624;2023-01-08T08:44:19;102650;;;-1.7;27.8
49583;BME280;36329;48.816;44.624;2023-01-08T08:47:20;102643.99;;;-1.1;26.6
49583;BME280;36329;48.816;44.624;2023-01-08T08:50:23;102642.01;;;-1.4;25.7
49583;BME280;36329;48.816;44.624;2023-01-08T08:53:24;102639;;;-1.8;27.6
49583;BME280;36329;48.816;44.624;2023-01-08T08:56:26;102643.01;;;-1.8;27.9
49583;BME280;36329;48.816;44.624;2023-01-08T08:59:27;102648;;;-3.1;27.6
49583;BME280;36329;48.816;44.624;2023-01-08T09:02:30;102638;;;-4;28.7
49583;BME280;36329;48.816;44.624;2023-01-08T09:05:34;102637;;;-2.8;29.2
49583;BME280;36329;48.816;44.624;2023-01-08T09:08:36;102640;;;-1.1;26.9
49583;BME280;36329;48.816;44.624;2023-01-08T09:11:37;102625;;;0.2;26.1
49583;BME280;36329;48.816;44.624;2023-01-08T09:14:39;102623;;;0.6;25.2
49583;BME280;36329;48.816;44.624;2023-01-08T09:17:41;102614;;;-2.3;26.5
49583;BME280;36329;48.816;44.624;2023-01-08T09:20:42;102618.01;;;0;26
49583;BME280;36329;48.816;44.624;2023-01-08T09:23:44;102614;;;1;24.3
49583;BME280;36329;48.816;44.624;2023-01-08T09:26:48;102614;;;1.1;23.8
49583;BME280;36329;48.816;44.624;2023-01-08T09:29:49;102621;;;0.9;25.1
49583;BME280;36329;48.816;44.624;2023-01-08T09:32:54;102614;;;2.2;23.5
49583;BME280;36329;48.816;44.624;2023-01-08T09:35:57;102610;;;2.4;22.4
49583;BME280;36329;48.816;44.624;2023-01-08T09:38:59;102605.01;;;0.7;23.1
49583;BME280;36329;48.816;44.624;2023-01-08T09:42:02;102607.99;;;0.5;24.3
49583;BME280;36329;48.816;44.624;2023-01-08T09:45:05;102606.99;;;1.6;24.3
49583;BME280;36329;48.816;44.624;2023-01-08T09:48:16;102606.99;;;2.9;22.5
49583;BME280;36329;48.816;44.624;2023-01-08T09:51:19;102597;;;2;23.1
49583;BME280;36329;48.816;44.624;2023-01-08T09:54:23;102609;;;2.9;22.4
49583;BME280;36329;48.816;44.624;2023-01-08T09:57:27;102606.01;;;2.8;21.7
49583;BME280;36329;48.816;44.624;2023-01-08T10:00:32;102600;;;3.2;21.6
49583;BME280;36329;48.816;44.624;2023-01-08T10:03:39;102598;;;2.8;22
49583;BME280;36329;48.816;44.624;2023-01-08T10:06:47;102596;;;1.6;23
49583;BME280;36329;48.816;44.624;2023-01-08T10:09:52;102593.99;;;2;24.1
49583;BME280;36329;48.816;44.624;2023-01-08T10:12:55;102587;;;3.5;21.8
49583;BME280;36329;48.816;44.624;2023-01-08T10:15:57;102594.99;;;2.9;21.7
49583;BME280;36329;48.816;44.624;2023-01-08T10:18:59;102593.01;;;3.2;22.2
49583;BME280;36329;48.816;44.624;2023-01-08T10:22:00;102592.01;;;4.1;21
49583;BME280;36329;48.816;44.624;2023-01-08T10:25:04;102596;;;3.5;21.1
49583;BME280;36329;48.816;44.624;2023-01-08T10:28:17;102593.99;;;1.7;23.2
49583;BME280;36329;48.816;44.624;2023-01-08T10:31:19;102593.99;;;2.2;22
49583;BME280;36329;48.816;44.624;2023-01-08T10:34:25;102585;;;0.8;23.4
49583;BME280;36329;48.816;44.624;2023-01-08T10:37:29;102586;;;1.2;23.5
49583;BME280;36329;48.816;44.624;2023-01-08T10:40:35;102577;;;1.3;22.8
49583;BME280;36329;48.816;44.624;2023-01-08T10:43:43;102582.99;;;1.5;23.5
49583;BME280;36329;48.816;44.624;2023-01-08T10:46:52;102579;;;1.1;23.4
49583;BME280;36329;48.816;44.624;2023-01-08T10:49:54;102581.01;;;1.6;23.5
49583;BME280;36329;48.816;44.624;2023-01-08T10:52:58;102575;;;2.1;22.6
49583;BME280;36329;48.816;44.624;2023-01-08T10:56:02;102576;;;1.4;23.3
49583;BME280;36329;48.816;44.624;2023-01-08T10:59:03;102581.01;;;1.2;23.4
49583;BME280;36329;48.816;44.624;2023-01-08T11:02:19;102580.01;;;2.2;22.6
49583;BME280;36329;48.816;44.624;2023-01-08T11:05:28;102572;;;1.5;23.5
49583;BME280;36329;48.816;44.624;2023-01-08T11:08:31;102569.99;;;2.5;22.8
49583;BME280;36329;48.816;44.624;2023-01-08T11:11:34;102580.01;;;2.2;22.6
49583;BME280;36329;48.816;44.624;2023-01-08T11:14:36;102578;;;1.9;23.2
49583;BME280;36329;48.816;44.624;2023-01-08T11:17:38;102582.99;;;0.4;23.8
49583;BME280;36329;48.816;44.624;2023-01-08T11:20:39;102581.99;;;-0.1;25.1
49583;BME280;36329;48.816;44.624;2023-01-08T11:23:41;102575;;;-0.9;25.9
49583;BME280;36329;48.816;44.624;2023-01-08T11:26:44;102572;;;-0.7;25.7
49583;BME280;36329;48.816;44.624;2023-01-08T11:29:54;102568.99;;;-0.8;26.4
49583;BME280;36329;48.816;44.624;2023-01-08T11:33:03;102568.99;;;0.3;25.3
49583;BME280;36329;48.816;44.624;2023-01-08T11:36:11;102576;;;0.6;25.2
49583;BME280;36329;48.816;44.624;2023-01-08T11:39:20;102574;;;-0.4;25.9
49583;BME280;36329;48.816;44.624;2023-01-08T11:42:33;102574;;;0.3;25.4
49583;BME280;36329;48.816;44.624;2023-01-08T11:45:50;102573;;;-0.8;26.5
49583;BME280;36329;48.816;44.624;2023-01-08T11:49:04;102572;;;-1.5;27.1
49583;BME280;36329;48.816;44.624;2023-01-08T11:52:20;102572;;;-2.5;28
49583;BME280;36329;48.816;44.624;2023-01-08T11:55:31;102577;;;-2.7;28.5
49583;BME280;36329;48.816;44.624;2023-01-08T11:58:46;102579;;;-2.8;29.3
49583;BME280;36329;48.816;44.624;2023-01-08T12:01:59;102582.99;;;-3.7;30.4
49583;BME280;36329;48.816;44.624;2023-01-08T12:05:20;102582.99;;;-4;30.9
49583;BME280;36329;48.816;44.624;2023-01-08T12:08:28;102591;;;-4.6;31.8
49583;BME280;36329;48.816;44.624;2023-01-08T12:11:38;102593.01;;;-4.7;32.3
49583;BME280;36329;48.816;44.624;2023-01-08T12:14:47;102604;;;-5.4;34.1
49583;BME280;36329;48.816;44.624;2023-01-08T12:18:07;102609;;;-5.4;34.5
49583;BME280;36329;48.816;44.624;2023-01-08T12:21:20;102600;;;-6.3;35.8
49583;BME280;36329;48.816;44.624;2023-01-08T12:24:37;102597;;;-6.9;36.3
49583;BME280;36329;48.816;44.624;2023-01-08T12:27:53;102596;;;-7.2;38
49583;BME280;36329;48.816;44.624;2023-01-08T12:31:12;102598;;;-7.6;38.6
49583;BME280;36329;48.816;44.624;2023-01-08T12:34:22;102604;;;-7.5;39.4
49583;BME280;36329;48.816;44.624;2023-01-08T12:37:35;102607.99;;;-7.7;40.1
49583;BME280;36329;48.816;44.624;2023-01-08T12:40:47;102606.99;;;-7.9;40.6
49583;BME280;36329;48.816;44.624;2023-01-08T12:43:55;102605.01;;;-8.4;41.5
49583;BME280;36329;48.816;44.624;2023-01-08T12:47:02;102605.01;;;-9;42.2
49583;BME280;36329;48.816;44.624;2023-01-08T12:50:19;102606.99;;;-8.9;42.7
49583;BME280;36329;48.816;44.624;2023-01-08T12:53:25;102606.99;;;-9.3;44.1
49583;BME280;36329;48.816;44.624;2023-01-08T12:56:36;102613;;;-9.5;44.5
49583;BME280;36329;48.816;44.624;2023-01-08T12:59:47;102616;;;-9.9;44.9
49583;BME280;36329;48.816;44.624;2023-01-08T13:02:57;102621;;;-9.8;45.2
49583;BME280;36329;48.816;44.624;2023-01-08T13:06:10;102625;;;-10;45.7
49583;BME280;36329;48.816;44.624;2023-01-08T13:09:20;102625;;;-10.1;46.9
49583;BME280;36329;48.816;44.624;2023-01-08T13:12:33;102626;;;-9.9;46.7
49583;BME280;36329;48.816;44.624;2023-01-08T13:15:36;102628;;;-10;46.3
49583;BME280;36329;48.816;44.624;2023-01-08T13:18:38;102634;;;-10.2;48
49583;BME280;36329;48.816;44.624;2023-01-08T13:21:41;102628;;;-10.3;48.5
49583;BME280;36329;48.816;44.624;2023-01-08T13:24:44;102630.01;;;-10.2;47.9
49583;BME280;36329;48.816;44.624;2023-01-08T13:27:46;102638;;;-10.3;48.2
49583;BME280;36329;48.816;44.624;2023-01-08T13:30:48;102639;;;-10.2;48.8
49583;BME280;36329;48.816;44.624;2023-01-08T13:33:50;102627;;;-10.4;48.3
49583;BME280;36329;48.816;44.624;2023-01-08T13:36:56;102628;;;-10.4;49.5
49583;BME280;36329;48.816;44.624;2023-01-08T13:39:58;102630.01;;;-10.4;49.2
49583;BME280;36329;48.816;44.624;2023-01-08T13:43:00;102631.01;;;-10.3;48.9
49583;BME280;36329;48.816;44.624;2023-01-08T13:46:06;102636;;;-10.1;48.5
49583;BME280;36329;48.816;44.624;2023-01-08T13:49:17;102634;;;-10.2;48
49583;BME280;36329;48.816;44.624;2023-01-08T13:52:30;102635;;;-10.4;48.8
49583;BME280;36329;48.816;44.624;2023-01-08T13:55:35;102640;;;-10.3;49.9
49583;BME280;36329;48.816;44.624;2023-01-08T13:58:43;102635;;;-10.4;50.1
49583;BME280;36329;48.816;44.624;2023-01-08T14:01:55;102641;;;-10.8;50
49583;BME280;36329;48.816;44.624;2023-01-08T14:05:00;102640;;;-10.9;51.3
49583;BME280;36329;48.816;44.624;2023-01-08T14:08:02;102643.01;;;-11;51.8
49583;BME280;36329;48.816;44.624;2023-01-08T14:11:03;102640;;;-11.3;52.3
49583;BME280;36329;48.816;44.624;2023-01-08T14:14:09;102642.01;;;-11.5;53
49583;BME280;36329;48.816;44.624;2023-01-08T14:17:14;102646;;;-11.4;52.9
49583;BME280;36329;48.816;44.624;2023-01-08T14:20:23;102632.99;;;-11.6;53.7
49583;BME280;36329;48.816;44.624;2023-01-08T14:23:31;102637;;;-11.6;54.4
49583;BME280;36329;48.816;44.624;2023-01-08T14:26:36;102646;;;-11.4;54.6
49583;BME280;36329;48.816;44.624;2023-01-08T14:29:44;102642.01;;;-11.5;54.2
49583;BME280;36329;48.816;44.624;2023-01-08T14:32:46;102647;;;-11.7;54.5
49583;BME280;36329;48.816;44.624;2023-01-08T14:35:50;102640;;;-12;55.7
49583;BME280;36329;48.816;44.624;2023-01-08T14:38:52;102636;;;-11.7;55.4
49583;BME280;36329;48.816;44.624;2023-01-08T14:41:54;102637;;;-12;55.1
49583;BME280;36329;48.816;44.624;2023-01-08T14:44:57;102640;;;-12.1;55.7
49583;BME280;36329;48.816;44.624;2023-01-08T14:48:01;102639;;;-12.2;55.8
49583;BME280;36329;48.816;44.624;2023-01-08T14:51:11;102643.01;;;-12;55.8
49583;BME280;36329;48.816;44.624;2023-01-08T14:54:16;102643.01;;;-11.9;55.4
49583;BME280;36329;48.816;44.624;2023-01-08T14:57:20;102644.99;;;-12.5;56.4
49583;BME280;36329;48.816;44.624;2023-01-08T15:00:24;102650;;;-12.2;56.9
49583;BME280;36329;48.816;44.624;2023-01-08T15:03:28;102649;;;-11.9;55.6
49583;BME280;36329;48.816;44.624;2023-01-08T15:06:32;102654;;;-12;55.4
49583;BME280;36329;48.816;44.624;2023-01-08T15:09:35;102650;;;-11.7;54.6
49583;BME280;36329;48.816;44.624;2023-01-08T15:12:37;102655.01;;;-12;55.1
49583;BME280;36329;48.816;44.624;2023-01-08T15:15:50;102655.01;;;-12;55.5
49583;BME280;36329;48.816;44.624;2023-01-08T15:18:59;102652;;;-11.9;55.1
49583;BME280;36329;48.816;44.624;2023-01-08T15:22:02;102655.01;;;-11.9;54.9
49583;BME280;36329;48.816;44.624;2023-01-08T15:25:05;102661;;;-11.7;54.9
49583;BME280;36329;48.816;44.624;2023-01-08T15:28:12;102651;;;-11.7;54.6
49583;BME280;36329;48.816;44.624;2023-01-08T15:31:24;102652;;;-11.8;54.3
49583;BME280;36329;48.816;44.624;2023-01-08T15:34:26;102657.99;;;-11.8;54.7
49583;BME280;36329;48.816;44.624;2023-01-08T15:37:28;102654;;;-11.7;54.2
49583;BME280;36329;48.816;44.624;2023-01-08T15:40:30;102656.01;;;-11.7;53.8
49583;BME280;36329;48.816;44.624;2023-01-08T15:43:31;102653;;;-11.9;53.8
49583;BME280;36329;48.816;44.624;2023-01-08T15:46:33;102654;;;-11.9;54.9
49583;BME280;36329;48.816;44.624;2023-01-08T15:49:35;102652;;;-12.1;55
49583;BME280;36329;48.816;44.624;2023-01-08T15:52:37;102656.01;;;-12.2;54.7
49583;BME280;36329;48.816;44.624;2023-01-08T15:55:40;102660;;;-12.4;55.7
49583;BME280;36329;48.816;44.624;2023-01-08T15:58:42;102661;;;-12.5;56.3
49583;BME280;36329;48.816;44.624;2023-01-08T16:01:43;102659;;;-12.4;56.7
49583;BME280;36329;48.816;44.624;2023-01-08T16:04:51;102659;;;-12.4;55.7
49583;BME280;36329;48.816;44.624;2023-01-08T16:07:53;102656.99;;;-12.4;55.8
49583;BME280;36329;48.816;44.624;2023-01-08T16:10:54;102662;;;-12.5;56.3
49583;BME280;36329;48.816;44.624;2023-01-08T16:13:56;102656.01;;;-12.2;55.9
49583;BME280;36329;48.816;44.624;2023-01-08T16:16:57;102659;;;-12.4;56.2
49583;BME280;36329;48.816;44.624;2023-01-08T16:19:59;102661;;;-12.2;55.2
49583;BME280;36329;48.816;44.624;2023-01-08T16:23:01;102664;;;-12.3;56
49583;BME280;36329;48.816;44.624;2023-01-08T16:26:04;102674;;;-12.1;55.7
49583;BME280;36329;48.816;44.624;2023-01-08T16:29:06;102678;;;-12.2;55.3
49583;BME280;36329;48.816;44.624;2023-01-08T16:32:08;102679;;;-12.5;56.8
49583;BME280;36329;48.816;44.624;2023-01-08T16:35:09;102688;;;-12.6;56.8
49583;BME280;36329;48.816;44.624;2023-01-08T16:38:11;102693.01;;;-12.7;57.4
49583;BME280;36329;48.816;44.624;2023-01-08T16:41:13;102693.01;;;-12.6;56.5